Latest Weather Observations for Stenhouse Bay

IDS60801

Issued at 1:01 pm CDT Tuesday 6 December 2016 (issued every 30 minutes, with the page automatically refreshed every 10 minutes)

About weather observations | Map of weather stations | Latest weather observations for SA | Other Formats
Station Details ID: 022049 Name: STENHOUSE BAY Lat: -35.28 Lon: 136.94 Height: 42.0 m
Data from the previous 72 hours. | See also: Recent months at Stenhouse Bay
Date/Time
CDT
Temp
°C
App
Temp
°C
Dew
Point
°C
Rel
Hum
%
Delta-T
°C
Wind Press
QNH
hPa
Press
MSL
hPa
Rain since
9am
mm
Dir  Spd
km/h
Gust
km/h
Spd
kts
Gust
kts
06/01:00pm 18.6 16.1 8.3 51 5.3 SSW 11 15 6 8 1016.5 1016.4 0.0
06/12:30pm 18.1 16.0 8.4 53 5.0 SSW 9 13 5 7 1016.6 1016.5 0.0
06/12:00pm 17.6 15.9 8.5 55 4.7 S 7 11 4 6 1016.9 1016.8 0.0
06/11:30am 16.9 14.8 8.1 56 4.5 S 9 13 5 7 1016.9 1016.8 0.0
06/11:00am 17.1 14.7 8.8 58 4.3 S 11 13 6 7 1017.1 1017.0 0.0
06/10:30am 16.4 14.7 8.4 59 4.1 SSE 7 11 4 6 1016.8 1016.7 0.0
06/10:00am 16.4 14.9 8.6 60 4.0 SSE 6 9 3 5 1017.0 1016.9 0.0
06/09:30am 16.3 14.6 8.5 60 4.0 S 7 11 4 6 1017.0 1016.9 0.0
06/09:00am 16.7 15.1 8.9 60 4.0 S 7 11 4 6 1016.8 1016.7 0.0
06/08:30am 15.8 14.1 8.5 62 3.7 SSE 7 11 4 6 1016.4 1016.3 0.0
06/08:00am 16.2 14.1 8.2 59 4.1 S 9 13 5 7 1016.5 1016.4 0.0
06/07:30am 15.8 14.1 8.5 62 3.7 S 7 11 4 6 1016.0 1015.9 0.0
06/07:00am 14.6 13.2 8.8 68 2.9 S 6 9 3 5 1016.2 1016.1 0.0
06/06:30am 14.1 12.1 8.7 70 2.7 SSW 9 11 5 6 1015.8 1015.7 0.0
06/06:00am 14.0 12.1 9.2 73 2.4 S 9 15 5 8 1015.3 1015.2 0.0
06/05:30am 13.8 12.1 8.4 70 2.7 SE 7 9 4 5 1015.1 1015.0 0.0
06/05:00am 13.9 11.9 8.5 70 2.7 SE 9 13 5 7 1014.6 1014.5 0.0
06/04:30am 14.0 11.6 8.6 70 2.7 SE 11 15 6 8 1014.0 1013.9 0.0
06/04:00am 14.0 11.9 8.2 68 2.9 SE 9 13 5 7 1013.8 1013.7 0.0
06/03:30am 13.9 11.9 8.5 70 2.7 ESE 9 15 5 8 1013.5 1013.4 0.0
06/03:00am 13.9 12.2 8.5 70 2.7 SE 7 11 4 6 1014.0 1013.9 0.0
06/02:30am 13.7 11.9 8.1 69 2.8 ESE 7 11 4 6 1014.1 1014.0 0.0
06/02:00am 13.8 13.0 8.2 69 2.8 SSE 2 4 1 2 1015.3 1015.2 0.0
06/01:30am 14.0 12.3 8.2 68 2.9 ESE 7 9 4 5 1014.9 1014.8 0.0
06/01:00am 14.2 11.6 7.9 66 3.1 ESE 11 15 6 8 1014.8 1014.7 0.0
06/12:30am 14.3 11.5 8.7 69 2.8 ESE 13 17 7 9 1014.7 1014.6 0.0
06/12:00am 14.5 11.4 8.9 69 2.8 ESE 15 19 8 10 1014.7 1014.6 0.0
 
Date/Time
CDT
Temp
°C
App
Temp
°C
Dew
Point
°C
Rel
Hum
%
Delta-T
°C
Wind Press
QNH
hPa
Press
MSL
hPa
Rain since
9am
mm
Dir  Spd
km/h
Gust
km/h
Spd
kts
Gust
kts
05/11:30pm 14.6 11.4 8.5 67 3.1 SE 15 19 8 10 1015.3 1015.2 0.0
05/11:00pm 14.9 11.1 9.1 68 3.0 SE 19 22 10 12 1015.4 1015.3 0.0
05/10:30pm 15.2 12.4 8.4 64 3.4 ESE 13 19 7 10 1015.4 1015.3 0.0
05/10:00pm 15.5 12.5 9.2 66 3.2 E 15 19 8 10 1014.9 1014.8 0.0
05/09:30pm 15.6 12.6 9.1 65 3.3 E 15 19 8 10 1015.1 1015.0 0.0
05/09:00pm 15.6 13.2 8.8 64 3.5 E 11 15 6 8 1014.8 1014.7 0.0
05/08:30pm 16.0 14.1 9.2 64 3.5 E 9 13 5 7 1014.7 1014.6 0.0
05/08:00pm 16.5 14.6 9.0 61 3.9 ESE 9 13 5 7 1013.9 1013.8 0.0
05/07:30pm 17.0 15.4 8.7 58 4.3 ESE 7 13 4 7 1013.9 1013.8 0.0
05/07:00pm 17.5 15.2 8.9 57 4.5 S 11 13 6 7 1013.6 1013.5 0.0
05/06:30pm 16.8 14.1 9.0 60 4.0 S 13 17 7 9 1013.4 1013.3 0.0
05/06:00pm 17.1 14.7 8.8 58 4.3 SSW 11 15 6 8 1013.8 1013.7 0.0
05/05:30pm 17.3 14.5 8.4 56 4.6 SSW 13 19 7 10 1014.0 1013.9 0.0
05/05:00pm 18.3 15.4 9.6 57 4.6 SSW 15 19 8 10 1013.8 1013.7 0.0
05/04:30pm 17.3 14.3 9.2 59 4.2 SSW 15 20 8 11 1013.8 1013.7 0.0
05/04:00pm 16.7 13.7 9.1 61 3.9 SW 15 20 8 11 1014.2 1014.1 0.0
05/03:30pm 17.3 14.0 9.5 60 4.1 SW 17 22 9 12 1014.8 1014.7 0.0
05/03:00pm 17.5 14.2 9.4 59 4.2 SW 17 22 9 12 1014.6 1014.5 0.0
05/02:30pm 17.6 14.2 9.0 57 4.5 SW 17 24 9 13 1014.9 1014.8 0.0
05/02:00pm 18.7 15.2 8.9 53 5.1 SW 17 24 9 13 1015.1 1015.0 0.0
05/01:30pm 19.3 16.9 8.6 50 5.6 SW 11 15 6 8 1014.9 1014.8 0.0
05/01:00pm 18.7 16.8 7.5 48 5.7 SSW 7 13 4 7 1014.9 1014.8 0.0
05/12:30pm 17.7 15.8 6.9 49 5.4 SW 6 11 3 6 1014.9 1014.8 0.0
05/12:00pm 18.5 16.9 7.9 50 5.4 SSW 6 11 3 6 1015.0 1014.9 0.0
05/11:30am 18.1 16.5 7.8 51 5.2 SSW 6 9 3 5 1015.5 1015.4 0.0
05/11:00am 17.1 14.8 7.5 53 4.8 SSE 9 13 5 7 1015.3 1015.2 0.0
05/10:30am 17.5 14.5 7.5 52 5.0 SSE 13 17 7 9 1015.0 1014.9 0.0
05/10:00am 17.6 13.9 7.9 53 4.9 S 17 22 9 12 1015.0 1014.9 0.0
05/09:30am 16.6 12.9 8.1 57 4.3 SSW 17 22 9 12 1015.7 1015.6 0.0
05/09:00am 17.2 13.2 8.9 58 4.3 S 20 28 11 15 1015.1 1015.0 0.0
05/08:30am 16.5 12.1 9.0 61 3.9 S 22 28 12 15 1014.4 1014.3 0.0
05/08:00am 15.7 10.2 7.7 59 4.0 SSW 26 33 14 18 1013.7 1013.6 0.0
05/07:30am 15.3 10.2 7.8 61 3.7 SSW 24 35 13 19 1013.8 1013.7 0.0
05/07:00am 14.7 8.8 7.5 62 3.6 SSW 28 35 15 19 1013.4 1013.3 0.0
05/06:30am 14.3 9.2 7.8 65 3.2 SSW 24 35 13 19 1013.3 1013.2 0.0
05/06:00am 14.5 9.0 9.1 70 2.8 SSW 28 39 15 21 1012.9 1012.8 0.0
05/05:30am 14.5 9.3 8.9 69 2.8 SSW 26 33 14 18 1012.7 1012.6 0.0
05/05:00am 14.6 10.0 9.8 73 2.5 SSW 24 37 13 20 1012.5 1012.4 0.0
05/04:30am 15.0 10.3 10.8 76 2.2 SSW 26 37 14 20 1012.0 1011.9 0.0
05/04:00am 15.0 10.8 9.8 71 2.7 SW 22 32 12 17 1012.0 1011.9 0.0
05/03:30am 15.0 11.7 9.4 69 2.9 SW 17 26 9 14 1012.3 1012.2 0.0
05/03:00am 15.1 10.8 9.2 68 3.0 SW 22 32 12 17 1011.6 1011.5 0.0
05/02:30am 15.2 10.6 9.6 69 2.9 SSW 24 35 13 19 1011.3 1011.2 0.0
05/02:00am 15.2 10.6 9.6 69 2.9 SW 24 35 13 19 1011.1 1011.0 0.0
05/01:30am 15.2 11.4 9.8 70 2.8 SW 20 32 11 17 1010.9 1010.8 0.0
05/01:00am 15.4 10.2 10.2 71 2.7 SW 28 39 15 21 1010.5 1010.3 0.0
05/12:30am 15.6 10.9 10.8 73 2.6 SW 26 39 14 21 1010.5 1010.3 0.0
05/12:00am 15.5 9.6 10.3 71 2.7 SW 32 41 17 22 1010.5 1010.3 0.0
 
Date/Time
CDT
Temp
°C
App
Temp
°C
Dew
Point
°C
Rel
Hum
%
Delta-T
°C
Wind Press
QNH
hPa
Press
MSL
hPa
Rain since
9am
mm
Dir  Spd
km/h
Gust
km/h
Spd
kts
Gust
kts
04/11:30pm 15.7 10.3 10.9 73 2.6 SW 30 43 16 23 1010.4 1010.2 0.0
04/11:00pm 16.1 11.6 11.5 74 2.5 SW 26 43 14 23 1010.2 1010.0 0.0
04/10:30pm 16.2 10.9 11.4 73 2.6 SW 30 41 16 22 1009.8 1009.6 0.0
04/10:00pm 16.4 11.7 12.0 75 2.4 SW 28 41 15 22 1009.7 1009.5 0.0
04/09:30pm 16.5 11.2 13.2 81 1.9 SW 33 44 18 24 1008.7 1008.5 0.0
04/09:00pm 16.7 12.5 13.4 81 1.9 SW 28 35 15 19 1008.2 1008.0 0.0
04/08:30pm 17.0 10.3 13.5 80 2.0 SW 41 54 22 29 1007.3 1007.1 0.0
04/08:17pm 17.2 11.3 13.7 80 2.0 SW 37 57 20 31 1006.9 1006.7 0.0
04/08:00pm 17.5 12.1 14.0 80 2.0 SW 35 50 19 27 1006.4 1006.2 0.0
04/07:30pm 18.4 13.0 14.9 80 2.0 WSW 37 52 20 28 1005.3 1005.2 0.0
04/07:00pm 20.1 15.0 14.7 71 3.2 WSW 35 48 19 26 1004.3 1004.2 0.0
04/06:30pm 22.1 17.5 14.5 62 4.5 WSW 32 44 17 24 1003.8 1003.7 0.0
04/06:09pm 22.7 18.1 14.5 60 4.8 W 32 52 17 28 1003.4 1003.3 0.0
04/06:00pm 23.2 18.6 15.0 60 4.9 W 33 48 18 26 1003.4 1003.3 0.0
04/05:30pm 26.0 21.1 15.4 52 6.5 W 35 57 19 31 1002.6 1002.5 0.0
04/05:15pm 28.1 24.8 16.1 48 7.4 WNW 28 52 15 28 1002.4 1002.3 0.0
04/05:00pm 29.1 26.8 16.6 46 7.8 NNW 24 33 13 18 1002.4 1002.3 0.0
04/04:30pm 28.4 25.4 16.7 49 7.3 NNW 28 39 15 21 1002.2 1002.1 0.0
04/04:00pm 28.1 24.3 16.7 50 7.1 NNW 32 46 17 25 1002.3 1002.2 0.0
04/03:42pm 28.3 24.1 17.2 51 7.0 NNW 35 56 19 30 1002.3 1002.2 0.0
04/03:30pm 27.9 22.9 17.1 51 6.8 NNW 39 54 21 29 1002.1 1002.0 0.0
04/03:00pm 28.0 23.1 16.3 49 7.3 N 37 50 20 27 1001.9 1001.8 0.0
04/02:30pm 29.0 23.7 16.2 46 8.0 N 39 50 21 27 1002.2 1002.1 0.0
04/02:14pm 31.2 27.5 16.0 40 9.5 N 30 52 16 28 1002.3 1002.2 0.0
04/02:00pm 31.7 28.7 16.8 40 9.4 N 28 37 15 20 1002.5 1002.4 0.0
04/01:49pm 29.5 28.0 16.7 46 8.0 NNE 20 33 11 18 1002.8 1002.7 0.0
04/01:30pm 24.2 23.3 13.7 52 6.2 E 11 17 6 9 1003.2 1003.1 0.0
04/01:00pm 24.6 23.2 12.2 46 7.1 ESE 11 13 6 7 1003.8 1003.7 0.0
04/12:30pm 24.5 23.2 12.5 47 6.9 S 11 15 6 8 1004.4 1004.3 0.0
04/12:00pm 23.5 22.1 12.2 49 6.5 SSW 11 13 6 7 1005.0 1004.9 0.0
04/11:30am 25.8 23.9 14.3 49 6.9 W 17 28 9 15 1005.9 1005.8 0.0
04/11:08am 25.3 21.4 15.6 55 5.9 WNW 30 50 16 27 1006.4 1006.2 0.0
04/11:00am 26.4 22.1 15.4 50 6.7 NNW 32 44 17 24 1006.3 1006.1 0.0
04/10:30am 28.1 22.1 15.4 46 7.8 N 41 61 22 33 1005.1 1005.0 0.0
04/10:00am 28.0 21.9 15.3 46 7.8 N 41 61 22 33 1004.7 1004.6 0.0
04/09:31am 27.2 21.4 14.9 47 7.4 N 39 59 21 32 1004.8 1004.7 0.0
04/09:30am 27.2 21.4 14.9 47 7.5 N 39 54 21 29 1004.8 1004.7 0.0
04/09:10am 26.8 21.0 14.9 48 7.2 N 39 57 21 31 1004.9 1004.8 0.0
04/09:00am 26.5 20.6 14.6 48 7.2 N 39 56 21 30 1005.1 1005.0 0.0
04/08:58am 26.6 21.1 14.7 48 7.2 N 37 56 20 30 1005.2 1005.1 0.0
04/08:30am 22.8 19.1 12.7 53 5.8 N 24 35 13 19 1005.4 1005.3 0.0
04/08:00am 20.9 18.1 12.6 59 4.7 N 19 24 10 13 1005.5 1005.4 0.0
04/07:30am 18.9 16.6 11.9 64 3.9 NNW 15 19 8 10 1006.1 1006.0 0.0
04/07:00am 18.2 19.1 15.1 82 1.8 WNW 4 7 2 4 1006.3 1006.1 0.0
04/06:30am 18.3 17.8 14.8 80 2.0 SE 11 13 6 7 1005.4 1005.3 0.0
04/06:00am 18.4 17.4 13.5 73 2.8 E 11 13 6 7 1005.2 1005.1 0.0
04/05:30am 18.6 15.9 13.0 70 3.2 NE 19 22 10 12 1004.7 1004.6 0.0
04/05:00am 18.1 15.0 11.7 66 3.5 ENE 19 24 10 13 1004.9 1004.8 0.0
04/04:30am 18.1 16.1 12.8 71 3.0 ENE 15 19 8 10 1005.1 1005.0 0.0
04/04:00am 17.5 16.6 13.6 78 2.2 ENE 11 17 6 9 1005.8 1005.7 0.0
04/03:30am 17.5 16.1 14.6 83 1.7 E 15 19 8 10 1006.0 1005.9 0.0
04/03:00am 17.5 16.3 15.0 85 1.5 ENE 15 19 8 10 1006.5 1006.3 0.0
04/02:30am 17.4 15.3 14.7 84 1.6 ENE 19 24 10 13 1006.8 1006.6 0.0
04/02:00am 17.2 15.0 14.3 83 1.7 ENE 19 26 10 14 1007.4 1007.2 0.0
04/01:30am 16.9 13.9 13.6 81 1.9 ENE 22 30 12 16 1007.7 1007.5 0.0
04/01:00am 16.9 14.3 13.8 82 1.8 ENE 20 24 11 13 1008.5 1008.3 0.0
04/12:30am 16.8 14.2 13.9 83 1.7 ENE 20 28 11 15 1008.7 1008.5 0.0
04/12:00am 16.7 13.8 13.0 79 2.1 ENE 20 26 11 14 1009.1 1008.9 0.0
 
Date/Time
CDT
Temp
°C
App
Temp
°C
Dew
Point
°C
Rel
Hum
%
Delta-T
°C
Wind Press
QNH
hPa
Press
MSL
hPa
Rain since
9am
mm
Dir  Spd
km/h
Gust
km/h
Spd
kts
Gust
kts
03/11:30pm 16.7 13.7 12.7 77 2.2 E 20 28 11 15 1009.4 1009.2 0.0
03/11:00pm 17.1 13.7 12.6 75 2.5 E 22 28 12 15 1009.7 1009.5 0.0
03/10:30pm 17.2 14.6 13.7 80 2.0 E 20 26 11 14 1010.0 1009.8 0.0
03/10:00pm 17.1 15.3 13.4 79 2.1 E 15 20 8 11 1010.8 1010.7 0.0
03/09:30pm 16.8 15.0 13.3 80 2.0 E 15 17 8 9 1011.0 1010.9 0.0
03/09:00pm 16.4 15.3 11.8 74 2.5 SE 9 11 5 6 1011.2 1011.1 0.0
03/08:30pm 16.7 15.9 11.8 73 2.7 SSE 7 9 4 5 1011.2 1011.1 0.0
03/08:00pm 17.1 15.8 11.2 68 3.2 SSE 9 11 5 6 1011.3 1011.2 0.0
03/07:30pm 17.6 15.8 10.9 65 3.6 SSE 11 13 6 7 1011.2 1011.1 0.0
03/07:00pm 18.3 16.3 11.6 65 3.7 SSE 13 15 7 8 1011.0 1010.9 0.0
03/06:30pm 18.9 16.4 11.2 61 4.2 S 15 17 8 9 1011.1 1011.0 0.0
03/06:00pm 19.5 16.5 10.8 57 4.7 S 17 20 9 11 1011.0 1010.9 0.0
03/05:30pm 19.9 17.8 12.4 62 4.2 S 15 19 8 10 1011.5 1011.4 0.0
03/05:00pm 19.7 18.1 11.7 60 4.4 SSE 11 15 6 8 1011.3 1011.2 0.0
03/04:30pm 20.4 18.8 11.6 57 4.9 ESE 11 13 6 7 1011.4 1011.3 0.0
03/04:00pm 20.3 18.5 10.7 54 5.2 E 11 13 6 7 1011.6 1011.5 0.0
03/03:30pm 20.1 18.0 11.3 57 4.9 E 13 15 7 8 1011.9 1011.8 0.0
03/03:00pm 21.3 18.6 11.6 54 5.4 ESE 17 22 9 12 1011.7 1011.6 0.0
03/02:30pm 21.3 18.9 11.3 53 5.5 ESE 15 19 8 10 1012.5 1012.4 0.0
03/02:00pm 20.8 17.6 10.0 50 5.8 ESE 17 20 9 11 1012.8 1012.7 0.0
03/01:30pm 20.6 17.4 9.8 50 5.8 ESE 17 22 9 12 1012.9 1012.8 0.0

Other Formats:

Comma delimited format used in spreadsheet applications
http://www.bom.gov.au/fwo/IDS60801/IDS60801.95806.axf

JavaScript Object Notation format (JSON) in row-major order
http://www.bom.gov.au/fwo/IDS60801/IDS60801.95806.json